sensor_id;sensor_type;location;lat;lon;timestamp;P1;durP1;ratioP1;P2;durP2;ratioP2
41861;SDS011;27537;57.134;-2.136;2024-03-06T00:01:07;18.52;;;6.10;;
41861;SDS011;27537;57.134;-2.136;2024-03-06T00:03:34;17.05;;;6.78;;
41861;SDS011;27537;57.134;-2.136;2024-03-06T00:06:01;15.68;;;6.10;;
41861;SDS011;27537;57.134;-2.136;2024-03-06T00:08:27;19.80;;;6.00;;
41861;SDS011;27537;57.134;-2.136;2024-03-06T00:10:54;18.27;;;6.45;;
41861;SDS011;27537;57.134;-2.136;2024-03-06T00:13:21;27.05;;;6.70;;
41861;SDS011;27537;57.134;-2.136;2024-03-06T00:15:48;22.67;;;6.65;;
41861;SDS011;27537;57.134;-2.136;2024-03-06T00:18:14;23.27;;;6.40;;
41861;SDS011;27537;57.134;-2.136;2024-03-06T00:20:41;17.92;;;6.50;;
41861;SDS011;27537;57.134;-2.136;2024-03-06T00:23:09;19.83;;;6.90;;
41861;SDS011;27537;57.134;-2.136;2024-03-06T00:25:35;14.23;;;5.72;;
41861;SDS011;27537;57.134;-2.136;2024-03-06T00:28:02;18.30;;;6.70;;
41861;SDS011;27537;57.134;-2.136;2024-03-06T00:30:29;30.05;;;8.32;;
41861;SDS011;27537;57.134;-2.136;2024-03-06T00:32:57;24.00;;;7.57;;
41861;SDS011;27537;57.134;-2.136;2024-03-06T00:35:25;25.30;;;8.27;;
41861;SDS011;27537;57.134;-2.136;2024-03-06T00:37:52;25.33;;;7.70;;
41861;SDS011;27537;57.134;-2.136;2024-03-06T00:40:20;26.60;;;9.25;;
41861;SDS011;27537;57.134;-2.136;2024-03-06T00:42:46;25.63;;;7.50;;
41861;SDS011;27537;57.134;-2.136;2024-03-06T00:45:13;25.13;;;8.95;;
41861;SDS011;27537;57.134;-2.136;2024-03-06T00:47:40;35.88;;;8.55;;
41861;SDS011;27537;57.134;-2.136;2024-03-06T00:50:06;19.88;;;7.18;;
41861;SDS011;27537;57.134;-2.136;2024-03-06T00:52:34;23.45;;;7.93;;
41861;SDS011;27537;57.134;-2.136;2024-03-06T00:55:00;30.70;;;8.77;;
41861;SDS011;27537;57.134;-2.136;2024-03-06T00:57:27;26.77;;;8.25;;
41861;SDS011;27537;57.134;-2.136;2024-03-06T00:59:54;21.50;;;7.10;;
41861;SDS011;27537;57.134;-2.136;2024-03-06T01:02:20;20.45;;;7.28;;
41861;SDS011;27537;57.134;-2.136;2024-03-06T01:04:47;21.00;;;7.05;;
41861;SDS011;27537;57.134;-2.136;2024-03-06T01:07:14;23.60;;;6.82;;
41861;SDS011;27537;57.134;-2.136;2024-03-06T01:09:41;25.15;;;7.03;;
41861;SDS011;27537;57.134;-2.136;2024-03-06T01:12:07;31.77;;;8.75;;
41861;SDS011;27537;57.134;-2.136;2024-03-06T01:14:34;25.35;;;7.90;;
41861;SDS011;27537;57.134;-2.136;2024-03-06T01:17:04;27.83;;;6.95;;
41861;SDS011;27537;57.134;-2.136;2024-03-06T01:19:31;25.75;;;6.57;;
41861;SDS011;27537;57.134;-2.136;2024-03-06T01:21:58;16.58;;;6.55;;
41861;SDS011;27537;57.134;-2.136;2024-03-06T01:24:25;18.50;;;6.95;;
41861;SDS011;27537;57.134;-2.136;2024-03-06T01:26:51;21.25;;;6.03;;
41861;SDS011;27537;57.134;-2.136;2024-03-06T01:29:18;19.98;;;6.65;;
41861;SDS011;27537;57.134;-2.136;2024-03-06T01:31:45;24.33;;;7.22;;
41861;SDS011;27537;57.134;-2.136;2024-03-06T01:34:13;20.88;;;6.50;;
41861;SDS011;27537;57.134;-2.136;2024-03-06T01:36:40;28.10;;;8.05;;
41861;SDS011;27537;57.134;-2.136;2024-03-06T01:39:06;30.98;;;9.60;;
41861;SDS011;27537;57.134;-2.136;2024-03-06T01:41:33;22.92;;;6.70;;
41861;SDS011;27537;57.134;-2.136;2024-03-06T01:44:01;32.78;;;7.97;;
41861;SDS011;27537;57.134;-2.136;2024-03-06T01:46:28;23.48;;;6.40;;
41861;SDS011;27537;57.134;-2.136;2024-03-06T01:48:54;21.02;;;6.53;;
41861;SDS011;27537;57.134;-2.136;2024-03-06T01:51:23;20.48;;;6.53;;
41861;SDS011;27537;57.134;-2.136;2024-03-06T01:53:50;22.58;;;7.57;;
41861;SDS011;27537;57.134;-2.136;2024-03-06T01:56:17;20.65;;;6.28;;
41861;SDS011;27537;57.134;-2.136;2024-03-06T01:58:45;25.38;;;6.57;;
41861;SDS011;27537;57.134;-2.136;2024-03-06T02:01:13;22.48;;;6.70;;
41861;SDS011;27537;57.134;-2.136;2024-03-06T02:03:40;24.65;;;7.03;;
41861;SDS011;27537;57.134;-2.136;2024-03-06T02:06:08;31.40;;;8.93;;
41861;SDS011;27537;57.134;-2.136;2024-03-06T02:08:36;26.48;;;7.47;;
41861;SDS011;27537;57.134;-2.136;2024-03-06T02:11:03;38.60;;;9.18;;
41861;SDS011;27537;57.134;-2.136;2024-03-06T02:13:30;26.15;;;7.22;;
41861;SDS011;27537;57.134;-2.136;2024-03-06T02:15:57;29.33;;;9.07;;
41861;SDS011;27537;57.134;-2.136;2024-03-06T02:18:24;25.02;;;9.13;;
41861;SDS011;27537;57.134;-2.136;2024-03-06T02:20:51;31.95;;;8.23;;
41861;SDS011;27537;57.134;-2.136;2024-03-06T02:23:18;30.38;;;9.63;;
41861;SDS011;27537;57.134;-2.136;2024-03-06T02:25:46;25.20;;;8.10;;
41861;SDS011;27537;57.134;-2.136;2024-03-06T02:28:13;31.98;;;10.25;;
41861;SDS011;27537;57.134;-2.136;2024-03-06T02:30:40;31.67;;;9.45;;
41861;SDS011;27537;57.134;-2.136;2024-03-06T02:33:09;28.33;;;8.70;;
41861;SDS011;27537;57.134;-2.136;2024-03-06T02:35:38;31.70;;;9.55;;
41861;SDS011;27537;57.134;-2.136;2024-03-06T02:38:06;30.83;;;8.45;;
41861;SDS011;27537;57.134;-2.136;2024-03-06T02:40:36;22.38;;;7.70;;
41861;SDS011;27537;57.134;-2.136;2024-03-06T02:43:02;26.38;;;8.00;;
41861;SDS011;27537;57.134;-2.136;2024-03-06T02:45:30;28.00;;;7.03;;
41861;SDS011;27537;57.134;-2.136;2024-03-06T02:47:57;22.95;;;7.00;;
41861;SDS011;27537;57.134;-2.136;2024-03-06T02:50:24;22.02;;;8.10;;
41861;SDS011;27537;57.134;-2.136;2024-03-06T02:52:50;23.52;;;6.95;;
41861;SDS011;27537;57.134;-2.136;2024-03-06T02:55:20;21.83;;;6.85;;
41861;SDS011;27537;57.134;-2.136;2024-03-06T02:57:50;24.00;;;6.40;;
41861;SDS011;27537;57.134;-2.136;2024-03-06T03:00:16;23.50;;;8.15;;
41861;SDS011;27537;57.134;-2.136;2024-03-06T03:02:43;21.70;;;6.93;;
41861;SDS011;27537;57.134;-2.136;2024-03-06T03:05:10;28.42;;;8.80;;
41861;SDS011;27537;57.134;-2.136;2024-03-06T03:07:37;23.80;;;7.22;;
41861;SDS011;27537;57.134;-2.136;2024-03-06T03:10:03;24.40;;;7.63;;
41861;SDS011;27537;57.134;-2.136;2024-03-06T03:12:31;21.20;;;6.57;;
41861;SDS011;27537;57.134;-2.136;2024-03-06T03:14:57;21.60;;;6.82;;
41861;SDS011;27537;57.134;-2.136;2024-03-06T03:17:24;21.52;;;7.70;;
41861;SDS011;27537;57.134;-2.136;2024-03-06T03:19:51;27.25;;;7.78;;
41861;SDS011;27537;57.134;-2.136;2024-03-06T03:22:19;24.02;;;7.93;;
41861;SDS011;27537;57.134;-2.136;2024-03-06T03:24:46;22.52;;;8.38;;
41861;SDS011;27537;57.134;-2.136;2024-03-06T03:27:13;25.10;;;8.38;;
41861;SDS011;27537;57.134;-2.136;2024-03-06T03:29:40;21.30;;;8.02;;
41861;SDS011;27537;57.134;-2.136;2024-03-06T03:32:07;28.23;;;9.05;;
41861;SDS011;27537;57.134;-2.136;2024-03-06T03:34:34;23.00;;;7.50;;
41861;SDS011;27537;57.134;-2.136;2024-03-06T03:37:01;19.92;;;7.53;;
41861;SDS011;27537;57.134;-2.136;2024-03-06T03:39:28;23.20;;;8.30;;
41861;SDS011;27537;57.134;-2.136;2024-03-06T03:41:55;21.30;;;7.78;;
41861;SDS011;27537;57.134;-2.136;2024-03-06T03:44:22;18.58;;;8.50;;
41861;SDS011;27537;57.134;-2.136;2024-03-06T03:46:49;22.95;;;8.15;;
41861;SDS011;27537;57.134;-2.136;2024-03-06T03:49:15;20.58;;;8.00;;
41861;SDS011;27537;57.134;-2.136;2024-03-06T03:51:42;30.77;;;8.93;;
41861;SDS011;27537;57.134;-2.136;2024-03-06T03:54:09;27.58;;;9.13;;
41861;SDS011;27537;57.134;-2.136;2024-03-06T03:56:36;21.20;;;9.48;;
41861;SDS011;27537;57.134;-2.136;2024-03-06T03:59:02;32.05;;;10.52;;
41861;SDS011;27537;57.134;-2.136;2024-03-06T04:01:29;23.27;;;9.32;;
41861;SDS011;27537;57.134;-2.136;2024-03-06T04:03:56;28.80;;;9.30;;
41861;SDS011;27537;57.134;-2.136;2024-03-06T04:06:22;32.40;;;10.00;;
41861;SDS011;27537;57.134;-2.136;2024-03-06T04:08:49;23.55;;;9.07;;
41861;SDS011;27537;57.134;-2.136;2024-03-06T04:11:16;31.20;;;10.23;;
41861;SDS011;27537;57.134;-2.136;2024-03-06T04:13:43;26.20;;;10.77;;
41861;SDS011;27537;57.134;-2.136;2024-03-06T04:16:10;33.03;;;10.02;;
41861;SDS011;27537;57.134;-2.136;2024-03-06T04:18:42;29.15;;;11.23;;
41861;SDS011;27537;57.134;-2.136;2024-03-06T04:21:09;27.02;;;10.30;;
41861;SDS011;27537;57.134;-2.136;2024-03-06T04:23:36;41.22;;;11.27;;
41861;SDS011;27537;57.134;-2.136;2024-03-06T04:26:03;25.35;;;10.75;;
41861;SDS011;27537;57.134;-2.136;2024-03-06T04:28:30;27.70;;;10.27;;
41861;SDS011;27537;57.134;-2.136;2024-03-06T04:30:57;30.70;;;10.45;;
41861;SDS011;27537;57.134;-2.136;2024-03-06T04:33:23;27.25;;;9.27;;
41861;SDS011;27537;57.134;-2.136;2024-03-06T04:35:50;32.22;;;9.60;;
41861;SDS011;27537;57.134;-2.136;2024-03-06T04:38:17;28.05;;;9.75;;
41861;SDS011;27537;57.134;-2.136;2024-03-06T04:40:43;29.48;;;9.65;;
41861;SDS011;27537;57.134;-2.136;2024-03-06T04:43:11;28.42;;;11.90;;
41861;SDS011;27537;57.134;-2.136;2024-03-06T04:45:37;25.00;;;10.43;;
41861;SDS011;27537;57.134;-2.136;2024-03-06T04:48:04;32.17;;;10.45;;
41861;SDS011;27537;57.134;-2.136;2024-03-06T04:50:32;34.10;;;10.70;;
41861;SDS011;27537;57.134;-2.136;2024-03-06T04:52:59;34.40;;;9.82;;
41861;SDS011;27537;57.134;-2.136;2024-03-06T04:55:25;25.33;;;9.73;;
41861;SDS011;27537;57.134;-2.136;2024-03-06T04:57:53;32.10;;;11.65;;
41861;SDS011;27537;57.134;-2.136;2024-03-06T05:00:20;29.52;;;11.40;;
41861;SDS011;27537;57.134;-2.136;2024-03-06T05:02:47;37.35;;;12.25;;
41861;SDS011;27537;57.134;-2.136;2024-03-06T05:05:33;36.30;;;9.98;;
41861;SDS011;27537;57.134;-2.136;2024-03-06T05:08:16;23.42;;;9.88;;
41861;SDS011;27537;57.134;-2.136;2024-03-06T05:11:00;26.42;;;9.38;;
41861;SDS011;27537;57.134;-2.136;2024-03-06T05:13:45;30.45;;;11.30;;
41861;SDS011;27537;57.134;-2.136;2024-03-06T05:16:29;30.55;;;12.88;;
41861;SDS011;27537;57.134;-2.136;2024-03-06T05:19:13;27.30;;;11.40;;
41861;SDS011;27537;57.134;-2.136;2024-03-06T05:21:58;34.55;;;11.48;;
41861;SDS011;27537;57.134;-2.136;2024-03-06T05:24:43;34.45;;;10.95;;
41861;SDS011;27537;57.134;-2.136;2024-03-06T05:27:27;33.00;;;11.25;;
41861;SDS011;27537;57.134;-2.136;2024-03-06T05:30:11;33.28;;;10.93;;
41861;SDS011;27537;57.134;-2.136;2024-03-06T05:32:55;32.00;;;11.23;;
41861;SDS011;27537;57.134;-2.136;2024-03-06T05:35:40;43.10;;;13.75;;
41861;SDS011;27537;57.134;-2.136;2024-03-06T05:38:25;27.95;;;9.75;;
41861;SDS011;27537;57.134;-2.136;2024-03-06T05:41:08;34.38;;;11.43;;
41861;SDS011;27537;57.134;-2.136;2024-03-06T05:43:52;32.80;;;12.25;;
41861;SDS011;27537;57.134;-2.136;2024-03-06T05:46:36;33.45;;;11.88;;
41861;SDS011;27537;57.134;-2.136;2024-03-06T05:49:20;42.70;;;13.18;;
41861;SDS011;27537;57.134;-2.136;2024-03-06T05:52:04;33.47;;;10.95;;
41861;SDS011;27537;57.134;-2.136;2024-03-06T05:54:48;45.42;;;12.05;;
41861;SDS011;27537;57.134;-2.136;2024-03-06T05:57:32;28.65;;;11.00;;
41861;SDS011;27537;57.134;-2.136;2024-03-06T06:00:16;32.90;;;10.65;;
41861;SDS011;27537;57.134;-2.136;2024-03-06T06:02:44;41.92;;;9.77;;
41861;SDS011;27537;57.134;-2.136;2024-03-06T06:05:12;30.15;;;10.25;;
41861;SDS011;27537;57.134;-2.136;2024-03-06T06:07:49;29.95;;;10.13;;
41861;SDS011;27537;57.134;-2.136;2024-03-06T06:10:17;38.28;;;11.50;;
41861;SDS011;27537;57.134;-2.136;2024-03-06T06:12:48;36.80;;;11.10;;
41861;SDS011;27537;57.134;-2.136;2024-03-06T06:15:15;30.67;;;10.00;;
41861;SDS011;27537;57.134;-2.136;2024-03-06T06:17:42;29.40;;;10.23;;
41861;SDS011;27537;57.134;-2.136;2024-03-06T06:20:11;34.58;;;10.35;;
41861;SDS011;27537;57.134;-2.136;2024-03-06T06:22:43;31.35;;;10.13;;
41861;SDS011;27537;57.134;-2.136;2024-03-06T06:25:10;39.05;;;10.80;;
41861;SDS011;27537;57.134;-2.136;2024-03-06T06:27:37;31.65;;;9.52;;
41861;SDS011;27537;57.134;-2.136;2024-03-06T06:30:05;26.02;;;9.38;;
41861;SDS011;27537;57.134;-2.136;2024-03-06T06:32:33;26.40;;;8.70;;
41861;SDS011;27537;57.134;-2.136;2024-03-06T06:35:01;29.48;;;10.10;;
41861;SDS011;27537;57.134;-2.136;2024-03-06T06:37:28;33.30;;;9.85;;
41861;SDS011;27537;57.134;-2.136;2024-03-06T06:39:55;36.20;;;9.77;;
41861;SDS011;27537;57.134;-2.136;2024-03-06T06:42:21;29.25;;;9.23;;
41861;SDS011;27537;57.134;-2.136;2024-03-06T06:44:48;27.35;;;8.52;;
41861;SDS011;27537;57.134;-2.136;2024-03-06T06:47:15;24.55;;;8.75;;
41861;SDS011;27537;57.134;-2.136;2024-03-06T06:49:41;34.72;;;10.20;;
41861;SDS011;27537;57.134;-2.136;2024-03-06T06:52:08;26.17;;;9.23;;
41861;SDS011;27537;57.134;-2.136;2024-03-06T06:54:35;29.55;;;9.07;;
41861;SDS011;27537;57.134;-2.136;2024-03-06T06:57:01;32.20;;;8.90;;
41861;SDS011;27537;57.134;-2.136;2024-03-06T06:59:29;40.17;;;11.43;;
41861;SDS011;27537;57.134;-2.136;2024-03-06T07:01:56;35.45;;;9.63;;
41861;SDS011;27537;57.134;-2.136;2024-03-06T07:04:23;29.40;;;9.63;;
41861;SDS011;27537;57.134;-2.136;2024-03-06T07:06:51;30.85;;;9.73;;
41861;SDS011;27537;57.134;-2.136;2024-03-06T07:09:18;22.63;;;8.18;;
41861;SDS011;27537;57.134;-2.136;2024-03-06T07:11:45;28.67;;;9.85;;
41861;SDS011;27537;57.134;-2.136;2024-03-06T07:14:12;30.20;;;8.27;;
41861;SDS011;27537;57.134;-2.136;2024-03-06T07:16:43;25.08;;;8.32;;
41861;SDS011;27537;57.134;-2.136;2024-03-06T07:19:10;25.75;;;8.57;;
41861;SDS011;27537;57.134;-2.136;2024-03-06T07:21:38;25.63;;;8.00;;
41861;SDS011;27537;57.134;-2.136;2024-03-06T07:24:05;29.67;;;9.07;;
41861;SDS011;27537;57.134;-2.136;2024-03-06T07:26:33;31.58;;;9.10;;
41861;SDS011;27537;57.134;-2.136;2024-03-06T07:29:00;32.00;;;8.82;;
41861;SDS011;27537;57.134;-2.136;2024-03-06T07:31:28;21.42;;;8.00;;
41861;SDS011;27537;57.134;-2.136;2024-03-06T07:33:55;22.10;;;7.97;;
41861;SDS011;27537;57.134;-2.136;2024-03-06T07:36:21;25.13;;;7.93;;
41861;SDS011;27537;57.134;-2.136;2024-03-06T07:38:48;20.02;;;7.32;;
41861;SDS011;27537;57.134;-2.136;2024-03-06T07:41:15;24.13;;;7.55;;
41861;SDS011;27537;57.134;-2.136;2024-03-06T07:43:42;23.88;;;8.13;;
41861;SDS011;27537;57.134;-2.136;2024-03-06T07:46:08;25.10;;;7.05;;
41861;SDS011;27537;57.134;-2.136;2024-03-06T07:48:37;23.65;;;7.85;;
41861;SDS011;27537;57.134;-2.136;2024-03-06T07:51:05;23.52;;;8.10;;
41861;SDS011;27537;57.134;-2.136;2024-03-06T07:53:31;22.35;;;7.25;;
41861;SDS011;27537;57.134;-2.136;2024-03-06T07:55:58;25.48;;;7.35;;
41861;SDS011;27537;57.134;-2.136;2024-03-06T07:58:25;24.75;;;7.15;;
41861;SDS011;27537;57.134;-2.136;2024-03-06T08:00:52;24.10;;;7.63;;
41861;SDS011;27537;57.134;-2.136;2024-03-06T08:03:23;16.98;;;7.30;;
41861;SDS011;27537;57.134;-2.136;2024-03-06T08:05:51;25.52;;;7.85;;
41861;SDS011;27537;57.134;-2.136;2024-03-06T08:08:21;21.88;;;7.03;;
41861;SDS011;27537;57.134;-2.136;2024-03-06T08:10:48;22.83;;;8.20;;
41861;SDS011;27537;57.134;-2.136;2024-03-06T08:13:15;23.42;;;6.25;;
41861;SDS011;27537;57.134;-2.136;2024-03-06T08:15:42;32.13;;;7.78;;
41861;SDS011;27537;57.134;-2.136;2024-03-06T08:18:11;22.35;;;7.32;;
41861;SDS011;27537;57.134;-2.136;2024-03-06T08:20:40;28.02;;;8.15;;
41861;SDS011;27537;57.134;-2.136;2024-03-06T08:23:08;29.80;;;8.70;;
41861;SDS011;27537;57.134;-2.136;2024-03-06T08:25:39;25.65;;;8.27;;
41861;SDS011;27537;57.134;-2.136;2024-03-06T08:28:06;21.85;;;7.82;;
41861;SDS011;27537;57.134;-2.136;2024-03-06T08:30:33;23.90;;;7.65;;
41861;SDS011;27537;57.134;-2.136;2024-03-06T08:32:59;27.08;;;7.20;;
41861;SDS011;27537;57.134;-2.136;2024-03-06T08:35:27;26.23;;;8.93;;
41861;SDS011;27537;57.134;-2.136;2024-03-06T08:37:54;24.35;;;7.45;;
41861;SDS011;27537;57.134;-2.136;2024-03-06T08:40:21;18.63;;;7.32;;
41861;SDS011;27537;57.134;-2.136;2024-03-06T08:42:49;23.92;;;7.95;;
41861;SDS011;27537;57.134;-2.136;2024-03-06T08:45:16;21.75;;;6.60;;
41861;SDS011;27537;57.134;-2.136;2024-03-06T08:47:46;27.05;;;7.68;;
41861;SDS011;27537;57.134;-2.136;2024-03-06T08:50:16;24.50;;;7.60;;
41861;SDS011;27537;57.134;-2.136;2024-03-06T08:52:43;32.13;;;8.55;;
41861;SDS011;27537;57.134;-2.136;2024-03-06T08:55:10;24.58;;;7.90;;
41861;SDS011;27537;57.134;-2.136;2024-03-06T08:57:37;31.13;;;8.15;;
41861;SDS011;27537;57.134;-2.136;2024-03-06T09:00:05;37.67;;;8.30;;
41861;SDS011;27537;57.134;-2.136;2024-03-06T09:02:38;21.58;;;7.97;;
41861;SDS011;27537;57.134;-2.136;2024-03-06T09:05:08;22.77;;;7.35;;
41861;SDS011;27537;57.134;-2.136;2024-03-06T09:07:37;32.38;;;8.13;;
41861;SDS011;27537;57.134;-2.136;2024-03-06T09:10:07;27.85;;;8.63;;
41861;SDS011;27537;57.134;-2.136;2024-03-06T09:12:35;20.40;;;8.23;;
41861;SDS011;27537;57.134;-2.136;2024-03-06T09:15:02;27.88;;;9.15;;
41861;SDS011;27537;57.134;-2.136;2024-03-06T09:17:29;25.00;;;7.65;;
41861;SDS011;27537;57.134;-2.136;2024-03-06T09:19:56;19.50;;;6.97;;
41861;SDS011;27537;57.134;-2.136;2024-03-06T09:22:37;27.52;;;7.63;;
41861;SDS011;27537;57.134;-2.136;2024-03-06T09:25:05;17.30;;;7.05;;
41861;SDS011;27537;57.134;-2.136;2024-03-06T09:27:33;24.73;;;7.45;;
41861;SDS011;27537;57.134;-2.136;2024-03-06T09:29:59;30.75;;;6.57;;
41861;SDS011;27537;57.134;-2.136;2024-03-06T09:32:27;20.23;;;6.30;;
41861;SDS011;27537;57.134;-2.136;2024-03-06T09:34:53;21.85;;;7.57;;
41861;SDS011;27537;57.134;-2.136;2024-03-06T09:37:20;19.35;;;6.35;;
41861;SDS011;27537;57.134;-2.136;2024-03-06T09:39:47;26.25;;;7.55;;
41861;SDS011;27537;57.134;-2.136;2024-03-06T09:42:16;20.13;;;5.68;;
41861;SDS011;27537;57.134;-2.136;2024-03-06T09:44:43;21.60;;;5.88;;
41861;SDS011;27537;57.134;-2.136;2024-03-06T09:47:12;23.55;;;7.28;;
41861;SDS011;27537;57.134;-2.136;2024-03-06T09:49:41;17.33;;;6.50;;
41861;SDS011;27537;57.134;-2.136;2024-03-06T09:52:09;17.17;;;5.68;;
41861;SDS011;27537;57.134;-2.136;2024-03-06T09:54:37;19.55;;;6.05;;
41861;SDS011;27537;57.134;-2.136;2024-03-06T09:57:05;20.02;;;5.68;;
41861;SDS011;27537;57.134;-2.136;2024-03-06T09:59:32;19.88;;;5.75;;
41861;SDS011;27537;57.134;-2.136;2024-03-06T10:02:00;23.63;;;5.68;;
41861;SDS011;27537;57.134;-2.136;2024-03-06T10:04:32;23.98;;;6.40;;
41861;SDS011;27537;57.134;-2.136;2024-03-06T10:07:00;18.17;;;5.50;;
41861;SDS011;27537;57.134;-2.136;2024-03-06T10:09:29;17.58;;;5.57;;
41861;SDS011;27537;57.134;-2.136;2024-03-06T10:11:57;27.10;;;5.55;;
41861;SDS011;27537;57.134;-2.136;2024-03-06T10:14:27;15.20;;;5.88;;
41861;SDS011;27537;57.134;-2.136;2024-03-06T10:16:56;14.27;;;5.15;;
41861;SDS011;27537;57.134;-2.136;2024-03-06T10:19:27;20.63;;;5.95;;
41861;SDS011;27537;57.134;-2.136;2024-03-06T10:21:55;17.63;;;6.07;;
41861;SDS011;27537;57.134;-2.136;2024-03-06T10:24:24;20.67;;;6.47;;
41861;SDS011;27537;57.134;-2.136;2024-03-06T10:26:52;22.63;;;5.97;;
41861;SDS011;27537;57.134;-2.136;2024-03-06T10:29:22;23.27;;;6.68;;
41861;SDS011;27537;57.134;-2.136;2024-03-06T10:31:57;18.60;;;5.45;;
41861;SDS011;27537;57.134;-2.136;2024-03-06T10:34:26;13.43;;;5.28;;
41861;SDS011;27537;57.134;-2.136;2024-03-06T10:36:56;17.60;;;5.85;;
41861;SDS011;27537;57.134;-2.136;2024-03-06T10:39:23;19.73;;;7.05;;
41861;SDS011;27537;57.134;-2.136;2024-03-06T10:41:57;17.98;;;5.97;;
41861;SDS011;27537;57.134;-2.136;2024-03-06T10:44:25;21.88;;;6.78;;
41861;SDS011;27537;57.134;-2.136;2024-03-06T10:46:59;24.75;;;6.68;;
41861;SDS011;27537;57.134;-2.136;2024-03-06T10:49:30;22.65;;;5.90;;
41861;SDS011;27537;57.134;-2.136;2024-03-06T10:51:59;16.42;;;5.55;;
41861;SDS011;27537;57.134;-2.136;2024-03-06T10:54:29;20.40;;;5.78;;
41861;SDS011;27537;57.134;-2.136;2024-03-06T10:56:57;18.13;;;5.72;;
41861;SDS011;27537;57.134;-2.136;2024-03-06T10:59:24;22.92;;;6.50;;
41861;SDS011;27537;57.134;-2.136;2024-03-06T11:01:57;24.13;;;5.93;;
41861;SDS011;27537;57.134;-2.136;2024-03-06T11:04:28;17.90;;;6.22;;
41861;SDS011;27537;57.134;-2.136;2024-03-06T11:06:56;16.85;;;5.55;;
41861;SDS011;27537;57.134;-2.136;2024-03-06T11:09:32;15.65;;;5.40;;
41861;SDS011;27537;57.134;-2.136;2024-03-06T11:12:04;15.13;;;5.60;;
41861;SDS011;27537;57.134;-2.136;2024-03-06T11:14:37;19.05;;;5.63;;
41861;SDS011;27537;57.134;-2.136;2024-03-06T11:17:06;13.20;;;5.13;;
41861;SDS011;27537;57.134;-2.136;2024-03-06T11:28:18;17.33;;;6.22;;
41861;SDS011;27537;57.134;-2.136;2024-03-06T11:30:56;22.23;;;7.32;;
41861;SDS011;27537;57.134;-2.136;2024-03-06T11:33:28;17.50;;;5.82;;
41861;SDS011;27537;57.134;-2.136;2024-03-06T11:41:27;17.38;;;5.78;;
41861;SDS011;27537;57.134;-2.136;2024-03-06T11:44:12;26.15;;;6.40;;
41861;SDS011;27537;57.134;-2.136;2024-03-06T11:46:45;19.33;;;6.45;;
41861;SDS011;27537;57.134;-2.136;2024-03-06T11:49:22;17.20;;;5.82;;
41861;SDS011;27537;57.134;-2.136;2024-03-06T11:51:56;21.23;;;5.68;;
41861;SDS011;27537;57.134;-2.136;2024-03-06T11:54:24;23.05;;;6.03;;
41861;SDS011;27537;57.134;-2.136;2024-03-06T11:56:56;17.40;;;5.07;;
41861;SDS011;27537;57.134;-2.136;2024-03-06T11:59:24;17.35;;;5.80;;
41861;SDS011;27537;57.134;-2.136;2024-03-06T12:02:03;29.65;;;7.15;;
41861;SDS011;27537;57.134;-2.136;2024-03-06T12:04:31;15.30;;;5.15;;
41861;SDS011;27537;57.134;-2.136;2024-03-06T12:07:06;24.52;;;6.95;;
41861;SDS011;27537;57.134;-2.136;2024-03-06T12:09:35;22.50;;;5.82;;
41861;SDS011;27537;57.134;-2.136;2024-03-06T12:12:07;19.05;;;7.10;;
41861;SDS011;27537;57.134;-2.136;2024-03-06T12:14:35;19.85;;;6.50;;
41861;SDS011;27537;57.134;-2.136;2024-03-06T12:17:02;20.27;;;6.90;;
41861;SDS011;27537;57.134;-2.136;2024-03-06T12:19:35;15.95;;;6.95;;
41861;SDS011;27537;57.134;-2.136;2024-03-06T12:22:04;20.98;;;6.25;;
41861;SDS011;27537;57.134;-2.136;2024-03-06T12:24:32;22.55;;;8.18;;
41861;SDS011;27537;57.134;-2.136;2024-03-06T12:26:59;24.02;;;6.75;;
41861;SDS011;27537;57.134;-2.136;2024-03-06T12:29:31;26.52;;;6.82;;
41861;SDS011;27537;57.134;-2.136;2024-03-06T12:31:59;16.75;;;6.38;;
41861;SDS011;27537;57.134;-2.136;2024-03-06T12:34:27;24.13;;;7.05;;
41861;SDS011;27537;57.134;-2.136;2024-03-06T12:36:53;19.05;;;6.47;;
41861;SDS011;27537;57.134;-2.136;2024-03-06T12:39:20;18.83;;;6.57;;
41861;SDS011;27537;57.134;-2.136;2024-03-06T12:41:50;17.27;;;5.72;;
41861;SDS011;27537;57.134;-2.136;2024-03-06T12:44:21;18.45;;;7.00;;
41861;SDS011;27537;57.134;-2.136;2024-03-06T12:46:47;17.45;;;5.85;;
41861;SDS011;27537;57.134;-2.136;2024-03-06T12:49:15;24.42;;;6.53;;
41861;SDS011;27537;57.134;-2.136;2024-03-06T12:51:41;17.33;;;5.82;;
41861;SDS011;27537;57.134;-2.136;2024-03-06T12:54:08;20.48;;;6.53;;
41861;SDS011;27537;57.134;-2.136;2024-03-06T12:56:35;18.92;;;5.70;;
41861;SDS011;27537;57.134;-2.136;2024-03-06T12:59:02;21.05;;;6.50;;
41861;SDS011;27537;57.134;-2.136;2024-03-06T13:01:30;15.55;;;5.57;;
41861;SDS011;27537;57.134;-2.136;2024-03-06T13:03:57;21.20;;;6.65;;
41861;SDS011;27537;57.134;-2.136;2024-03-06T13:06:32;17.80;;;6.38;;
41861;SDS011;27537;57.134;-2.136;2024-03-06T13:08:59;25.77;;;7.25;;
41861;SDS011;27537;57.134;-2.136;2024-03-06T13:11:26;18.77;;;6.80;;
41861;SDS011;27537;57.134;-2.136;2024-03-06T13:13:53;14.18;;;6.10;;
41861;SDS011;27537;57.134;-2.136;2024-03-06T13:16:20;18.27;;;5.95;;
41861;SDS011;27537;57.134;-2.136;2024-03-06T13:18:48;15.05;;;5.85;;
41861;SDS011;27537;57.134;-2.136;2024-03-06T13:21:16;19.00;;;7.00;;
41861;SDS011;27537;57.134;-2.136;2024-03-06T13:23:42;12.32;;;5.40;;
41861;SDS011;27537;57.134;-2.136;2024-03-06T13:26:09;24.98;;;7.13;;
41861;SDS011;27537;57.134;-2.136;2024-03-06T13:28:36;17.70;;;6.70;;
41861;SDS011;27537;57.134;-2.136;2024-03-06T13:31:03;22.20;;;6.70;;
41861;SDS011;27537;57.134;-2.136;2024-03-06T13:33:33;19.73;;;5.97;;
41861;SDS011;27537;57.134;-2.136;2024-03-06T13:36:00;18.00;;;6.07;;
41861;SDS011;27537;57.134;-2.136;2024-03-06T13:38:31;18.38;;;6.13;;
41861;SDS011;27537;57.134;-2.136;2024-03-06T13:40:57;15.82;;;5.95;;
41861;SDS011;27537;57.134;-2.136;2024-03-06T13:43:24;19.90;;;5.93;;
41861;SDS011;27537;57.134;-2.136;2024-03-06T13:45:51;24.55;;;6.18;;
41861;SDS011;27537;57.134;-2.136;2024-03-06T13:48:18;18.52;;;6.70;;
41861;SDS011;27537;57.134;-2.136;2024-03-06T13:50:45;22.30;;;6.28;;
41861;SDS011;27537;57.134;-2.136;2024-03-06T13:53:13;22.23;;;7.07;;
41861;SDS011;27537;57.134;-2.136;2024-03-06T13:55:40;20.73;;;7.57;;
41861;SDS011;27537;57.134;-2.136;2024-03-06T13:58:08;17.48;;;6.65;;
41861;SDS011;27537;57.134;-2.136;2024-03-06T14:00:34;17.08;;;6.20;;
41861;SDS011;27537;57.134;-2.136;2024-03-06T14:03:01;16.13;;;6.25;;
41861;SDS011;27537;57.134;-2.136;2024-03-06T14:05:28;21.70;;;6.40;;
41861;SDS011;27537;57.134;-2.136;2024-03-06T14:07:55;24.17;;;7.20;;
41861;SDS011;27537;57.134;-2.136;2024-03-06T14:10:23;16.88;;;6.07;;
41861;SDS011;27537;57.134;-2.136;2024-03-06T14:12:50;15.20;;;5.90;;
41861;SDS011;27537;57.134;-2.136;2024-03-06T14:15:18;23.48;;;7.43;;
41861;SDS011;27537;57.134;-2.136;2024-03-06T14:17:46;23.45;;;6.22;;
41861;SDS011;27537;57.134;-2.136;2024-03-06T14:20:13;14.55;;;5.18;;
41861;SDS011;27537;57.134;-2.136;2024-03-06T14:22:40;14.73;;;5.68;;
41861;SDS011;27537;57.134;-2.136;2024-03-06T14:25:07;18.30;;;6.25;;
41861;SDS011;27537;57.134;-2.136;2024-03-06T14:27:34;15.23;;;5.97;;
41861;SDS011;27537;57.134;-2.136;2024-03-06T14:30:05;19.77;;;6.13;;
41861;SDS011;27537;57.134;-2.136;2024-03-06T14:32:37;16.50;;;5.63;;
41861;SDS011;27537;57.134;-2.136;2024-03-06T14:35:04;19.08;;;5.82;;
41861;SDS011;27537;57.134;-2.136;2024-03-06T14:37:31;21.15;;;7.05;;
41861;SDS011;27537;57.134;-2.136;2024-03-06T14:39:58;14.95;;;6.50;;
41861;SDS011;27537;57.134;-2.136;2024-03-06T14:42:29;16.67;;;6.93;;
41861;SDS011;27537;57.134;-2.136;2024-03-06T14:44:56;16.23;;;6.38;;